Time;durP1;ratioP1;P1;durP2;ratioP2;P2;SDS_P1;SDS_P2;PMS_P1;PMS_P2;Temp;Humidity;BMP_temperature;BMP_pressure;BME280_temperature;BME280_humidity;BME280_pressure;Samples;Min_cycle;Max_cycle;Signal;HPM_P1;HPM_P2
2021/11/27 00:01:26;;;;;;;;;101.25;101.00;10.70;68.40;;;;;;5069346;28;8881;-69
2021/11/27 00:03:54;;;;;;;;;91.25;88.00;10.50;68.90;;;;;;5069314;28;8753;-69
2021/11/27 00:06:22;;;;;;;;;86.00;77.75;10.40;69.40;;;;;;5072801;28;9037;-69
2021/11/27 00:08:48;;;;;;;;;79.75;67.00;10.40;69.80;;;;;;5061962;28;9533;-69
2021/11/27 00:11:14;;;;;;;;;84.25;76.00;10.70;68.50;;;;;;5071557;28;8910;-69
2021/11/27 00:13:40;;;;;;;;;81.00;68.00;10.40;70.00;;;;;;5073876;28;8865;-69
2021/11/27 00:16:06;;;;;;;;;86.50;73.25;10.50;69.60;;;;;;5074095;28;8808;-68
2021/11/27 00:18:32;;;;;;;;;81.50;70.25;10.80;68.60;;;;;;5070838;28;8777;-67
2021/11/27 00:21:04;;;;;;;;;80.00;64.25;11.20;67.40;;;;;;5070638;28;8768;-68
2021/11/27 00:23:31;;;;;;;;;71.25;58.75;11.20;67.00;;;;;;5074103;28;8815;-68
2021/11/27 00:25:58;;;;;;;;;86.75;77.00;11.30;66.60;;;;;;5073737;28;8756;-70
2021/11/27 00:28:24;;;;;;;;;85.75;78.50;11.40;66.20;;;;;;5074008;28;8894;-69
2021/11/27 00:30:54;;;;;;;;;83.50;74.25;10.80;67.90;;;;;;5070555;28;8843;-68
2021/11/27 00:33:20;;;;;;;;;85.25;74.50;10.70;68.30;;;;;;5061700;28;8808;-68
2021/11/27 00:35:46;;;;;;;;;91.50;90.00;10.70;68.70;;;;;;5070635;28;9439;-67
2021/11/27 00:38:12;;;;;;;;;89.50;85.75;10.90;67.90;;;;;;5072949;28;8768;-67
2021/11/27 00:40:40;;;;;;;;;100.25;99.00;11.00;68.00;;;;;;5072769;28;9411;-68
2021/11/27 00:43:08;;;;;;;;;113.25;107.00;10.90;67.80;;;;;;5073044;28;8756;-68
2021/11/27 00:45:35;;;;;;;;;94.75;94.75;10.30;70.10;;;;;;5073505;28;8764;-67
2021/11/27 00:48:01;;;;;;;;;97.75;96.50;9.70;73.50;;;;;;5073739;28;9505;-69
2021/11/27 00:50:34;;;;;;;;;93.00;92.25;9.30;74.40;;;;;;5073482;28;8771;-67
2021/11/27 00:53:02;;;;;;;;;91.25;84.75;9.20;75.80;;;;;;5073294;28;8819;-70
2021/11/27 00:55:30;;;;;;;;;89.75;86.00;9.30;75.80;;;;;;5076503;28;8989;-69
2021/11/27 00:57:56;;;;;;;;;88.50;77.75;9.30;75.70;;;;;;5076701;28;8820;-69
2021/11/27 01:00:26;;;;;;;;;86.75;78.75;9.40;75.80;;;;;;5076941;28;8784;-69
2021/11/27 01:02:52;;;;;;;;;92.00;88.75;9.40;75.70;;;;;;5077335;28;8741;-69
2021/11/27 01:05:19;;;;;;;;;89.25;83.25;9.50;75.60;;;;;;5077005;28;9506;-69
2021/11/27 01:07:46;;;;;;;;;85.50;74.25;9.30;76.50;;;;;;5077637;28;8769;-69
2021/11/27 01:10:16;;;;;;;;;90.25;80.50;9.60;75.80;;;;;;5077339;28;9468;-69
2021/11/27 01:12:42;;;;;;;;;89.25;75.50;9.60;75.60;;;;;;5077384;28;8760;-70
2021/11/27 01:15:12;;;;;;;;;89.25;82.00;9.70;75.40;;;;;;5077225;28;8817;-69
2021/11/27 01:17:38;;;;;;;;;83.75;75.00;10.00;74.50;;;;;;5077557;28;8756;-69
2021/11/27 01:20:06;;;;;;;;;84.25;75.00;9.70;75.50;;;;;;5076999;28;8779;-69
2021/11/27 01:22:32;;;;;;;;;84.00;72.75;9.60;75.90;;;;;;5077222;28;8757;-69
2021/11/27 01:24:58;;;;;;;;;81.75;69.00;9.60;76.60;;;;;;5077085;28;8821;-69
2021/11/27 01:27:26;;;;;;;;;83.25;70.75;9.70;76.30;;;;;;5076245;28;8765;-69
2021/11/27 01:29:52;;;;;;;;;87.25;76.00;9.50;76.90;;;;;;5076899;28;8776;-69
2021/11/27 01:32:18;;;;;;;;;81.75;71.00;9.30;78.30;;;;;;5077141;28;8748;-69
2021/11/27 01:34:44;;;;;;;;;82.25;72.50;9.00;80.30;;;;;;5076721;28;8812;-68
2021/11/27 01:37:10;;;;;;;;;84.25;73.00;9.40;79.20;;;;;;5076844;28;8799;-69
2021/11/27 01:39:37;;;;;;;;;82.25;70.25;9.40;78.70;;;;;;5076810;28;8772;-69
2021/11/27 01:42:04;;;;;;;;;81.00;68.50;9.60;78.00;;;;;;5076839;28;8771;-69
2021/11/27 01:44:30;;;;;;;;;81.50;65.25;9.60;77.90;;;;;;5076939;28;9473;-69
2021/11/27 01:46:56;;;;;;;;;82.00;71.00;9.70;77.60;;;;;;5076901;28;9434;-67
2021/11/27 01:49:22;;;;;;;;;82.50;69.50;9.60;78.00;;;;;;5076818;28;8826;-70
2021/11/27 01:51:48;;;;;;;;;77.25;62.50;9.40;79.10;;;;;;5076804;28;8773;-69
2021/11/27 01:54:15;;;;;;;;;73.75;60.50;9.30;80.10;;;;;;5076591;28;9429;-67
2021/11/27 01:56:52;;;;;;;;;74.75;60.75;9.20;80.80;;;;;;5075730;28;9604;-67
2021/11/27 01:59:19;;;;;;;;;71.75;59.00;9.20;81.20;;;;;;5075173;28;8765;-68
2021/11/27 02:01:46;;;;;;;;;70.50;56.50;9.20;81.20;;;;;;5076699;28;9445;-68
2021/11/27 02:04:13;;;;;;;;;66.75;55.75;9.30;80.60;;;;;;5076014;28;9434;-68
2021/11/27 02:06:42;;;;;;;;;63.75;53.75;9.20;81.30;;;;;;5076143;28;8808;-69
2021/11/27 02:09:15;;;;;;;;;58.00;49.00;9.10;82.60;;;;;;5076510;28;8748;-68
2021/11/27 02:11:41;;;;;;;;;53.00;45.50;9.00;82.60;;;;;;5076602;28;8801;-69
2021/11/27 02:14:09;;;;;;;;;57.75;49.50;8.90;83.40;;;;;;5076178;28;8765;-68
2021/11/27 02:16:37;;;;;;;;;56.00;48.00;8.80;84.10;;;;;;5076288;28;9685;-69
2021/11/27 02:19:03;;;;;;;;;55.75;48.00;8.90;84.20;;;;;;5076099;28;8763;-69
2021/11/27 02:21:29;;;;;;;;;51.50;44.50;8.90;83.60;;;;;;5076265;28;8764;-69
2021/11/27 02:23:55;;;;;;;;;46.50;41.75;8.90;83.70;;;;;;5075950;28;8854;-69
2021/11/27 02:26:32;;;;;;;;;42.25;38.50;8.70;84.60;;;;;;5076190;28;8867;-69
2021/11/27 02:29:14;;;;;;;;;38.25;36.25;8.80;84.30;;;;;;5075880;28;8784;-69
2021/11/27 02:31:40;;;;;;;;;34.25;34.25;8.70;83.90;;;;;;5075912;28;8765;-69
2021/11/27 02:34:07;;;;;;;;;35.75;35.00;8.60;84.10;;;;;;5075624;28;9454;-69
2021/11/27 02:36:34;;;;;;;;;28.75;28.50;8.50;84.80;;;;;;5076119;28;8894;-69
2021/11/27 02:39:00;;;;;;;;;32.50;32.50;8.60;83.10;;;;;;5075638;28;8780;-69
2021/11/27 02:41:27;;;;;;;;;35.75;35.50;8.50;82.80;;;;;;5075922;28;8768;-68
2021/11/27 02:43:53;;;;;;;;;33.25;32.75;8.40;83.50;;;;;;5075602;28;8772;-69
2021/11/27 02:46:19;;;;;;;;;31.50;31.50;8.40;83.60;;;;;;5075707;28;8858;-68
2021/11/27 02:48:44;;;;;;;;;34.00;32.25;8.40;82.90;;;;;;5075741;28;9414;-69
2021/11/27 02:51:11;;;;;;;;;32.75;32.75;8.60;82.40;;;;;;5075367;28;8787;-68
2021/11/27 02:53:37;;;;;;;;;27.75;27.75;8.60;81.40;;;;;;5075567;28;8811;-69
2021/11/27 02:56:04;;;;;;;;;30.00;30.00;9.10;79.60;;;;;;5075269;28;8819;-68
2021/11/27 02:58:30;;;;;;;;;31.75;31.75;9.10;79.40;;;;;;5075224;28;8781;-69
2021/11/27 03:00:58;;;;;;;;;31.75;31.75;9.40;77.90;;;;;;5075218;28;8856;-69
2021/11/27 03:03:25;;;;;;;;;27.25;26.75;9.60;76.60;;;;;;5075194;28;8787;-69
2021/11/27 03:05:52;;;;;;;;;33.25;33.25;9.70;76.30;;;;;;5075139;28;8839;-68
2021/11/27 03:08:18;;;;;;;;;22.00;22.00;9.80;75.30;;;;;;5075140;28;8773;-69
2021/11/27 03:10:44;;;;;;;;;25.75;25.75;9.60;75.80;;;;;;5075163;28;8776;-69
2021/11/27 03:13:10;;;;;;;;;31.25;31.25;9.70;76.30;;;;;;5075346;28;8792;-69
2021/11/27 03:15:41;;;;;;;;;30.75;29.75;9.50;76.40;;;;;;5074767;28;8812;-69
2021/11/27 03:18:11;;;;;;;;;30.25;28.75;9.40;76.70;;;;;;5074591;28;8865;-68
2021/11/27 03:20:38;;;;;;;;;26.75;26.75;9.50;76.80;;;;;;5074948;28;8756;-69
2021/11/27 03:23:05;;;;;;;;;26.50;26.50;9.50;76.20;;;;;;5075157;28;8765;-68
2021/11/27 03:25:32;;;;;;;;;27.00;27.00;9.50;76.40;;;;;;5074763;28;8764;-68
2021/11/27 03:27:58;;;;;;;;;28.75;28.00;9.80;74.70;;;;;;5074784;28;8760;-69
2021/11/27 03:30:23;;;;;;;;;30.50;30.50;9.60;75.10;;;;;;5074685;28;8775;-69
2021/11/27 03:32:49;;;;;;;;;28.75;28.75;9.30;76.90;;;;;;5074784;28;8767;-68
2021/11/27 03:35:16;;;;;;;;;29.75;29.50;9.20;77.60;;;;;;5074835;28;8836;-69
2021/11/27 03:37:42;;;;;;;;;27.50;27.50;9.30;77.20;;;;;;5074651;28;8777;-69
2021/11/27 03:40:10;;;;;;;;;30.25;30.25;9.10;77.40;;;;;;5074648;28;8756;-69
2021/11/27 03:42:36;;;;;;;;;26.25;26.25;9.30;76.50;;;;;;5074849;28;8764;-68
2021/11/27 03:45:05;;;;;;;;;22.50;22.50;9.40;76.30;;;;;;5074841;28;9469;-69
2021/11/27 03:47:30;;;;;;;;;26.00;26.00;9.20;76.80;;;;;;5074694;28;8761;-69
2021/11/27 03:49:56;;;;;;;;;24.25;24.25;9.00;77.10;;;;;;5074711;28;8772;-69
2021/11/27 03:52:22;;;;;;;;;24.50;24.50;9.10;77.80;;;;;;5074461;28;8871;-69
2021/11/27 03:54:49;;;;;;;;;30.75;30.25;8.80;77.90;;;;;;5074356;28;8761;-69
2021/11/27 03:57:16;;;;;;;;;30.25;30.25;8.80;78.10;;;;;;5074385;28;8757;-67
2021/11/27 03:59:41;;;;;;;;;27.50;26.00;9.00;76.80;;;;;;5074667;28;8775;-69
2021/11/27 04:02:08;;;;;;;;;31.25;31.25;8.60;77.40;;;;;;5074321;28;9387;-69
2021/11/27 04:04:35;;;;;;;;;30.25;30.25;8.60;77.80;;;;;;5074393;28;8825;-67
2021/11/27 04:07:02;;;;;;;;;34.00;34.00;8.30;78.90;;;;;;5074211;28;8797;-67
2021/11/27 04:09:28;;;;;;;;;31.75;31.75;8.30;79.10;;;;;;5074333;28;8795;-67
2021/11/27 04:11:54;;;;;;;;;16.00;16.00;8.30;79.20;;;;;;5074543;28;8748;-66
2021/11/27 04:14:19;;;;;;;;;35.00;35.00;8.40;78.90;;;;;;5074300;28;8780;-67
2021/11/27 04:16:45;;;;;;;;;27.50;27.50;8.60;78.10;;;;;;5074553;28;8800;-67
2021/11/27 04:19:11;;;;;;;;;23.00;23.00;8.60;77.30;;;;;;5074479;28;8749;-67
2021/11/27 04:21:37;;;;;;;;;27.25;27.25;8.70;76.70;;;;;;5074159;28;8772;-67
2021/11/27 04:24:03;;;;;;;;;31.75;31.25;8.70;75.70;;;;;;5074217;28;8856;-67
2021/11/27 04:26:29;;;;;;;;;29.00;29.00;8.70;75.70;;;;;;5074378;28;8776;-67
2021/11/27 04:28:55;;;;;;;;;29.50;29.50;8.90;75.50;;;;;;5077082;28;8849;-67
2021/11/27 04:31:22;;;;;;;;;30.25;30.25;8.50;75.70;;;;;;5078208;28;8777;-67
2021/11/27 04:33:49;;;;;;;;;26.75;26.75;8.80;75.70;;;;;;5078211;28;8861;-67
2021/11/27 04:36:15;;;;;;;;;28.00;28.00;9.10;74.10;;;;;;5077985;28;8854;-67
2021/11/27 04:38:41;;;;;;;;;32.25;32.25;8.80;74.20;;;;;;5078096;28;8756;-67
2021/11/27 04:41:08;;;;;;;;;33.00;33.00;8.30;76.10;;;;;;5078077;28;8765;-67
2021/11/27 04:43:33;;;;;;;;;29.50;29.50;8.20;77.10;;;;;;5078217;28;8835;-67
2021/11/27 04:45:59;;;;;;;;;35.50;35.25;8.40;76.00;;;;;;5078160;28;8789;-67
2021/11/27 04:48:25;;;;;;;;;26.75;26.75;8.40;75.60;;;;;;5078083;28;8783;-67
2021/11/27 04:50:51;;;;;;;;;33.25;33.25;8.60;75.20;;;;;;5078055;28;8765;-67
2021/11/27 04:53:17;;;;;;;;;27.00;27.00;8.70;75.00;;;;;;5077984;28;8757;-67
2021/11/27 04:55:44;;;;;;;;;24.50;24.50;8.70;74.50;;;;;;5077874;28;9418;-67
2021/11/27 04:58:10;;;;;;;;;22.00;22.00;8.90;73.70;;;;;;5077789;28;8784;-66
2021/11/27 05:00:40;;;;;;;;;27.50;26.00;9.00;73.20;;;;;;5077600;28;8794;-67
2021/11/27 05:03:06;;;;;;;;;28.25;28.25;9.10;72.50;;;;;;5077620;28;8786;-67
2021/11/27 05:05:33;;;;;;;;;30.50;30.50;9.20;72.10;;;;;;5077397;28;8867;-66
2021/11/27 05:07:59;;;;;;;;;33.00;33.00;9.50;71.00;;;;;;5077482;28;8768;-67
2021/11/27 05:10:26;;;;;;;;;29.00;29.00;9.20;71.70;;;;;;5077385;28;8765;-67
2021/11/27 05:12:53;;;;;;;;;30.50;30.00;9.10;72.00;;;;;;5077450;28;8768;-66
2021/11/27 05:15:18;;;;;;;;;25.50;25.50;9.30;71.20;;;;;;5077188;28;9457;-67
2021/11/27 05:17:44;;;;;;;;;24.50;24.00;9.40;70.70;;;;;;5077229;28;8821;-66
2021/11/27 05:20:11;;;;;;;;;28.00;28.00;9.30;70.50;;;;;;5077224;28;8876;-67
2021/11/27 05:22:37;;;;;;;;;29.25;28.50;9.50;69.60;;;;;;5077411;28;8756;-67
2021/11/27 05:25:05;;;;;;;;;25.00;25.00;9.10;70.90;;;;;;5077114;28;8764;-66
2021/11/27 05:27:31;;;;;;;;;25.25;25.25;8.80;72.10;;;;;;5077058;28;8803;-67
2021/11/27 05:29:57;;;;;;;;;26.50;26.50;9.10;71.50;;;;;;5077199;28;8741;-67
2021/11/27 05:32:38;;;;;;;;;26.25;26.25;9.30;71.30;;;;;;5077029;28;8749;-67
2021/11/27 05:35:08;;;;;;;;;27.50;26.00;9.80;69.80;;;;;;5077118;28;8894;-67
2021/11/27 05:37:36;;;;;;;;;20.75;20.75;9.80;68.30;;;;;;5077023;28;8752;-67
2021/11/27 05:40:04;;;;;;;;;25.75;25.75;9.90;68.30;;;;;;5076229;28;8760;-67
2021/11/27 05:42:30;;;;;;;;;23.50;23.50;10.00;67.70;;;;;;5076810;28;8807;-67
2021/11/27 05:44:56;;;;;;;;;30.75;30.75;10.00;67.40;;;;;;5076713;28;8878;-67
2021/11/27 05:47:23;;;;;;;;;33.00;33.00;9.70;68.10;;;;;;5076625;28;8867;-67
2021/11/27 05:49:49;;;;;;;;;33.00;33.00;9.40;69.40;;;;;;5076605;28;8772;-67
2021/11/27 05:52:16;;;;;;;;;31.25;30.50;9.30;69.40;;;;;;5075556;28;8937;-67
2021/11/27 05:54:42;;;;;;;;;42.50;38.00;9.60;69.00;;;;;;5076522;28;8761;-67
2021/11/27 05:57:08;;;;;;;;;28.25;28.25;9.50;69.20;;;;;;5076350;28;8808;-67
2021/11/27 05:59:34;;;;;;;;;42.25;39.00;9.50;69.60;;;;;;5076591;28;8840;-67
2021/11/27 06:02:00;;;;;;;;;38.25;35.25;9.40;69.50;;;;;;5076536;28;8943;-67
2021/11/27 06:04:27;;;;;;;;;61.25;51.50;9.40;69.40;;;;;;5076272;28;8777;-68
2021/11/27 06:06:52;;;;;;;;;68.00;54.75;9.60;68.70;;;;;;5076300;28;8800;-67
2021/11/27 06:09:18;;;;;;;;;73.75;60.50;9.40;69.40;;;;;;5076334;28;8769;-67
2021/11/27 06:11:44;;;;;;;;;85.25;73.75;9.00;71.10;;;;;;5076292;28;8865;-68
2021/11/27 06:14:10;;;;;;;;;87.00;75.75;8.90;72.00;;;;;;5076358;28;8796;-67
2021/11/27 06:16:37;;;;;;;;;74.25;61.00;9.00;72.00;;;;;;5076110;28;8812;-68
2021/11/27 06:19:03;;;;;;;;;76.25;62.75;9.10;71.10;;;;;;5076019;28;8791;-67
2021/11/27 06:21:29;;;;;;;;;91.75;82.50;9.20;71.00;;;;;;5076002;28;8842;-68
2021/11/27 06:23:55;;;;;;;;;84.00;73.00;9.30;70.00;;;;;;5075961;28;8752;-68
2021/11/27 06:26:21;;;;;;;;;81.50;69.75;9.30;70.20;;;;;;5075967;28;8781;-68
2021/11/27 06:28:48;;;;;;;;;97.00;91.50;8.60;72.60;;;;;;5075818;28;8862;-68
2021/11/27 06:31:14;;;;;;;;;96.50;89.75;8.40;73.90;;;;;;5075821;28;8858;-68
2021/11/27 06:33:40;;;;;;;;;91.75;81.75;8.20;74.50;;;;;;5076025;28;9454;-67
2021/11/27 06:36:06;;;;;;;;;94.00;87.25;8.50;73.90;;;;;;5075987;28;8954;-69
2021/11/27 06:38:32;;;;;;;;;100.75;94.50;8.90;72.20;;;;;;5075673;28;9383;-69
2021/11/27 06:40:58;;;;;;;;;105.50;100.00;9.10;71.00;;;;;;5075907;28;8784;-68
2021/11/27 06:43:24;;;;;;;;;119.25;108.50;9.20;70.50;;;;;;5075771;28;9497;-69
2021/11/27 06:45:50;;;;;;;;;107.50;105.25;9.20;70.60;;;;;;5075455;28;8803;-68
2021/11/27 06:48:16;;;;;;;;;103.50;101.50;8.90;71.80;;;;;;5075439;28;8788;-68
2021/11/27 06:50:42;;;;;;;;;91.00;82.75;8.50;73.30;;;;;;5075440;28;8760;-68
2021/11/27 06:53:08;;;;;;;;;90.75;83.75;8.50;73.80;;;;;;5075416;28;8772;-68
2021/11/27 06:55:34;;;;;;;;;86.75;78.00;8.50;74.10;;;;;;5075496;28;8796;-69
2021/11/27 06:58:00;;;;;;;;;92.25;83.25;8.80;73.00;;;;;;5075360;28;8772;-69
2021/11/27 07:00:26;;;;;;;;;72.50;60.25;9.10;72.00;;;;;;5075301;28;8795;-69
2021/11/27 07:02:52;;;;;;;;;76.00;62.25;8.50;74.50;;;;;;5075529;28;8777;-68
2021/11/27 07:05:18;;;;;;;;;65.00;55.25;8.90;73.80;;;;;;5075122;28;8812;-68
2021/11/27 07:07:44;;;;;;;;;58.00;48.75;9.10;72.70;;;;;;5075257;28;8765;-68
2021/11/27 07:10:10;;;;;;;;;59.25;49.75;8.80;73.90;;;;;;5075011;28;9543;-68
2021/11/27 07:12:36;;;;;;;;;55.50;48.50;8.90;74.10;;;;;;5075014;28;8853;-68
2021/11/27 07:15:03;;;;;;;;;44.00;40.75;9.00;73.30;;;;;;5074758;28;8753;-69
2021/11/27 07:17:32;;;;;;;;;50.50;44.00;9.50;72.30;;;;;;5074691;28;8768;-68
2021/11/27 07:19:58;;;;;;;;;36.50;35.00;9.30;72.00;;;;;;5074928;28;8787;-69
2021/11/27 07:22:25;;;;;;;;;36.00;35.25;9.50;71.50;;;;;;5073966;28;8764;-69
2021/11/27 07:24:51;;;;;;;;;54.50;47.00;9.30;71.80;;;;;;5074909;28;8757;-69
2021/11/27 07:27:17;;;;;;;;;49.75;44.00;9.50;70.80;;;;;;5068827;28;8880;-69
2021/11/27 07:29:43;;;;;;;;;51.75;45.25;9.30;72.10;;;;;;5065831;28;8830;-69
2021/11/27 07:32:09;;;;;;;;;49.25;43.25;9.10;74.00;;;;;;5067480;28;8790;-69
2021/11/27 07:34:35;;;;;;;;;50.25;44.25;8.80;75.20;;;;;;5063808;28;8807;-69
2021/11/27 07:37:01;;;;;;;;;53.00;45.25;8.70;76.30;;;;;;5060036;28;8808;-69
2021/11/27 07:39:27;;;;;;;;;50.25;41.00;8.80;76.10;;;;;;5060684;28;8779;-69
2021/11/27 07:41:53;;;;;;;;;50.00;42.25;8.30;78.20;;;;;;5057206;28;9445;-68
2021/11/27 07:44:19;;;;;;;;;51.00;44.75;8.30;79.20;;;;;;5065397;28;8793;-68
2021/11/27 07:46:52;;;;;;;;;48.00;42.00;8.40;78.20;;;;;;5074537;28;8768;-68
2021/11/27 07:49:19;;;;;;;;;56.25;48.25;8.50;79.30;;;;;;5067957;28;8776;-68
2021/11/27 07:51:45;;;;;;;;;53.25;45.75;8.40;79.30;;;;;;5061198;28;9429;-68
2021/11/27 07:54:11;;;;;;;;;54.00;46.25;8.50;79.20;;;;;;5066641;28;8800;-67
2021/11/27 07:56:38;;;;;;;;;53.00;46.00;8.30;80.10;;;;;;5074554;28;8808;-68
2021/11/27 07:59:04;;;;;;;;;55.75;47.50;8.30;80.50;;;;;;5074526;28;8775;-68
2021/11/27 08:01:30;;;;;;;;;58.75;50.75;8.60;79.60;;;;;;5074383;28;8820;-68
2021/11/27 08:03:56;;;;;;;;;63.50;53.00;8.90;77.90;;;;;;5074205;28;8838;-69
2021/11/27 08:06:22;;;;;;;;;53.75;46.00;8.80;78.00;;;;;;5074139;28;8840;-68
2021/11/27 08:08:48;;;;;;;;;58.00;48.25;8.60;78.50;;;;;;5068392;28;9567;-68
2021/11/27 08:11:13;;;;;;;;;56.75;48.50;8.50;79.40;;;;;;5061037;28;8779;-67
2021/11/27 08:13:42;;;;;;;;;60.50;52.00;8.20;81.10;;;;;;5067112;28;8821;-68
2021/11/27 08:16:08;;;;;;;;;42.75;40.00;8.30;81.10;;;;;;5068886;28;8842;-68
2021/11/27 08:18:34;;;;;;;;;64.75;53.75;8.20;81.70;;;;;;5074000;28;8845;-68
2021/11/27 08:21:03;;;;;;;;;65.75;55.00;8.20;82.00;;;;;;5074174;28;8804;-69
2021/11/27 08:23:29;;;;;;;;;62.00;51.75;8.50;81.40;;;;;;5073973;28;8784;-68
2021/11/27 08:25:55;;;;;;;;;60.75;52.00;8.70;79.40;;;;;;5073891;28;8861;-67
2021/11/27 08:28:20;;;;;;;;;64.50;54.25;8.60;80.10;;;;;;5073829;28;8795;-68
2021/11/27 08:30:46;;;;;;;;;66.00;54.25;8.30;81.50;;;;;;5071934;28;8820;-68
2021/11/27 08:33:12;;;;;;;;;61.75;52.25;8.30;81.70;;;;;;5059076;28;8788;-73
2021/11/27 08:35:38;;;;;;;;;52.25;44.25;8.30;81.70;;;;;;5065947;28;8869;-71
2021/11/27 08:38:04;;;;;;;;;64.75;53.00;8.60;81.00;;;;;;5061452;28;8764;-71
2021/11/27 08:40:30;;;;;;;;;66.00;55.25;9.00;78.50;;;;;;5072879;28;8803;-71
2021/11/27 08:42:58;;;;;;;;;63.50;52.50;9.00;79.10;;;;;;5078670;28;8762;-71
2021/11/27 08:45:25;;;;;;;;;60.25;51.75;9.30;78.00;;;;;;5093687;28;8788;-72
2021/11/27 08:47:51;;;;;;;;;66.50;55.25;9.10;78.80;;;;;;5094298;28;8774;-70
2021/11/27 08:50:17;;;;;;;;;75.75;62.25;9.30;78.00;;;;;;5094204;28;8811;-72
2021/11/27 08:52:43;;;;;;;;;68.50;56.25;9.40;77.50;;;;;;5094333;28;8812;-71
2021/11/27 08:55:09;;;;;;;;;58.75;49.50;9.50;77.60;;;;;;5077693;28;8780;-72
2021/11/27 08:57:35;;;;;;;;;72.50;60.50;9.30;78.00;;;;;;5073470;28;8781;-72
2021/11/27 09:00:00;;;;;;;;;71.75;59.00;9.20;78.60;;;;;;5073675;28;8816;-72
2021/11/27 09:02:27;;;;;;;;;71.00;58.75;8.90;80.40;;;;;;5071440;28;8775;-72
2021/11/27 09:04:53;;;;;;;;;62.75;53.00;8.80;81.30;;;;;;5058472;28;8817;-73
2021/11/27 09:07:18;;;;;;;;;69.50;57.50;8.60;82.90;;;;;;5060395;28;8782;-70
2021/11/27 09:09:46;;;;;;;;;73.75;59.00;8.70;83.20;;;;;;5064215;28;8776;-71
2021/11/27 09:12:14;;;;;;;;;75.75;62.00;9.10;80.90;;;;;;5063402;28;9453;-73
2021/11/27 09:14:40;;;;;;;;;72.75;60.25;8.90;82.30;;;;;;5064848;28;9265;-70
2021/11/27 09:17:06;;;;;;;;;68.00;56.00;9.30;81.00;;;;;;5071185;28;8834;-72
2021/11/27 09:19:31;;;;;;;;;65.25;53.25;9.40;79.30;;;;;;5066790;28;8808;-70
2021/11/27 09:21:58;;;;;;;;;71.25;58.75;9.50;79.10;;;;;;5066204;28;8831;-70
2021/11/27 09:24:23;;;;;;;;;65.75;53.25;9.60;78.90;;;;;;5065793;28;8791;-72
2021/11/27 09:26:50;;;;;;;;;64.50;54.00;10.00;77.40;;;;;;5057450;28;8771;-70
2021/11/27 09:29:18;;;;;;;;;58.00;47.50;9.70;78.60;;;;;;5069802;28;8776;-72
2021/11/27 09:31:45;;;;;;;;;67.25;56.25;9.50;78.90;;;;;;5076915;28;8768;-71
2021/11/27 09:34:12;;;;;;;;;62.50;52.50;9.60;78.30;;;;;;5076736;28;8784;-73
2021/11/27 09:36:40;;;;;;;;;56.25;42.75;9.30;80.90;;;;;;5066360;28;8792;-70
2021/11/27 09:39:11;;;;;;;;;66.25;53.00;9.30;80.90;;;;;;5068158;28;8779;-70
2021/11/27 09:41:40;;;;;;;;;58.50;49.25;9.20;81.20;;;;;;5066337;28;8779;-62
2021/11/27 09:44:08;;;;;;;;;62.00;51.00;9.20;81.40;;;;;;5071215;28;8756;-62
2021/11/27 09:46:37;;;;;;;;;75.00;60.25;9.10;81.80;;;;;;5066931;28;8861;-62
2021/11/27 09:49:10;;;;;;;;;81.75;65.25;9.00;82.60;;;;;;5069682;28;8768;-72
2021/11/27 09:51:37;;;;;;;;;72.00;58.25;9.20;82.20;;;;;;5056210;28;8783;-71
2021/11/27 09:54:07;;;;;;;;;71.25;57.25;9.50;81.20;;;;;;5066336;28;8768;-69
2021/11/27 09:56:33;;;;;;;;;73.00;59.00;9.90;80.70;;;;;;5072746;28;8793;-71
2021/11/27 09:59:00;;;;;;;;;76.00;61.50;10.30;78.00;;;;;;5075333;28;8757;-73
2021/11/27 10:01:29;;;;;;;;;85.75;77.00;10.40;77.10;;;;;;5074912;28;8879;-69
2021/11/27 10:04:08;;;;;;;;;67.25;55.75;10.40;76.60;;;;;;5073328;28;8749;-72
2021/11/27 10:06:39;;;;;;;;;73.50;59.00;9.80;78.70;;;;;;5072482;28;8828;-72
2021/11/27 10:09:09;;;;;;;;;84.75;78.50;9.60;80.00;;;;;;5074877;28;8771;-72
2021/11/27 10:11:36;;;;;;;;;71.50;58.00;9.70;80.00;;;;;;5074804;28;8788;-66
2021/11/27 10:14:03;;;;;;;;;73.75;60.25;9.80;80.00;;;;;;5075835;28;8778;-66
2021/11/27 10:16:32;;;;;;;;;65.00;53.50;9.90;79.20;;;;;;5074746;28;8891;-63
2021/11/27 10:19:11;;;;;;;;;64.50;48.00;9.90;79.00;;;;;;5075307;28;8745;-72
2021/11/27 10:21:38;;;;;;;;;93.50;89.50;9.70;79.00;;;;;;5075900;28;8764;-70
2021/11/27 10:24:23;;;;;;;;;81.50;71.00;9.80;80.20;;;;;;5076114;28;8765;-69
2021/11/27 10:26:50;;;;;;;;;92.25;85.50;9.80;80.10;;;;;;5075790;28;8833;-68
2021/11/27 10:29:32;;;;;;;;;79.25;69.50;9.90;80.40;;;;;;5072275;28;8784;-71
2021/11/27 10:32:17;;;;;;;;;76.50;63.25;10.00;79.80;;;;;;5069641;28;8780;-71
2021/11/27 10:34:49;;;;;;;;;75.50;60.00;10.10;79.10;;;;;;5055928;28;8888;-71
2021/11/27 10:37:29;;;;;;;;;71.75;59.75;10.10;79.60;;;;;;5057256;28;8801;-70
2021/11/27 10:40:15;;;;;;;;;73.50;62.00;10.10;80.00;;;;;;5062684;28;8897;-67
2021/11/27 10:42:51;;;;;;;;;64.00;53.50;10.20;79.20;;;;;;5072947;28;8785;-67
2021/11/27 10:45:24;;;;;;;;;73.50;59.25;10.00;80.10;;;;;;5064369;28;8779;-68
2021/11/27 10:48:10;;;;;;;;;74.00;58.75;10.20;79.60;;;;;;5055532;28;8774;-68
2021/11/27 10:50:41;;;;;;;;;74.75;59.50;10.30;79.20;;;;;;5055742;28;8770;-68
2021/11/27 10:53:12;;;;;;;;;80.75;70.75;10.20;79.10;;;;;;5055358;28;8803;-68
2021/11/27 10:55:39;;;;;;;;;81.50;65.00;10.70;78.10;;;;;;5055393;28;8833;-68
2021/11/27 10:58:08;;;;;;;;;74.50;62.75;11.30;75.40;;;;;;5055486;28;8789;-68
2021/11/27 11:00:41;;;;;;;;;70.25;58.25;10.80;75.90;;;;;;5054146;28;8783;-68
2021/11/27 11:03:25;;;;;;;;;75.25;60.25;10.50;77.00;;;;;;5054034;28;8787;-69
2021/11/27 11:05:53;;;;;;;;;75.00;61.50;10.60;76.50;;;;;;5055006;28;8822;-69
2021/11/27 11:08:34;;;;;;;;;75.00;64.00;10.80;76.10;;;;;;5055268;28;8771;-69
2021/11/27 11:11:21;;;;;;;;;71.50;59.50;11.10;75.80;;;;;;5055417;28;8755;-69
2021/11/27 11:14:01;;;;;;;;;81.00;70.00;11.10;75.80;;;;;;5066546;28;8791;-68
2021/11/27 11:16:32;;;;;;;;;75.00;60.75;10.80;77.30;;;;;;5074899;28;8832;-71
2021/11/27 11:19:21;;;;;;;;;75.00;59.25;11.20;75.60;;;;;;5073900;28;8772;-71
2021/11/27 11:22:13;;;;;;;;;84.75;79.75;11.10;76.00;;;;;;5075127;28;8841;-70
2021/11/27 11:24:42;;;;;;;;;75.50;64.50;11.50;75.10;;;;;;5075013;28;9426;-70
2021/11/27 11:27:09;;;;;;;;;76.75;69.00;12.30;72.80;;;;;;5074603;28;8772;-70
2021/11/27 11:29:43;;;;;;;;;72.50;62.50;13.00;70.30;;;;;;5074566;28;8787;-70
2021/11/27 11:32:17;;;;;;;;;77.00;70.00;13.30;69.10;;;;;;5074623;28;8761;-71
2021/11/27 11:34:44;;;;;;;;;71.00;57.00;13.20;69.80;;;;;;5074506;28;8804;-71
2021/11/27 11:37:10;;;;;;;;;75.25;60.50;14.60;66.50;;;;;;5065692;28;8828;-69
2021/11/27 11:39:38;;;;;;;;;76.00;58.50;15.10;64.10;;;;;;5017384;28;8821;-69
2021/11/27 11:42:05;;;;;;;;;72.00;57.50;14.60;64.10;;;;;;5054697;28;9441;-68
2021/11/27 11:44:30;;;;;;;;;78.25;63.25;13.50;67.60;;;;;;5072580;28;9450;-68
2021/11/27 11:46:56;;;;;;;;;80.25;70.25;13.30;69.10;;;;;;5074394;28;8772;-67
2021/11/27 11:49:22;;;;;;;;;82.50;74.75;13.80;67.80;;;;;;5074177;28;8765;-69
2021/11/27 11:51:56;;;;;;;;;79.75;71.75;15.20;66.50;;;;;;5074377;28;8769;-68
2021/11/27 11:54:24;;;;;;;;;78.00;71.00;19.60;58.40;;;;;;5055771;28;8779;-69
2021/11/27 11:57:06;;;;;;;;;70.50;57.50;23.80;45.60;;;;;;5054147;28;8822;-70
2021/11/27 11:59:37;;;;;;;;;62.33;51.00;26.20;38.90;;;;;;5053498;28;8809;-68
2021/11/27 12:02:22;;;;;;;;;58.67;48.67;26.60;38.00;;;;;;5054445;28;8890;-67
2021/11/27 12:04:57;;;;;;;;;59.67;49.33;26.80;36.20;;;;;;5053902;28;8783;-70
2021/11/27 12:07:44;;;;;;;;;55.67;46.33;25.90;37.70;;;;;;5054107;28;8778;-70
2021/11/27 12:10:16;;;;;;;;;56.00;47.67;27.10;35.90;;;;;;5054358;28;8807;-69
2021/11/27 12:12:44;;;;;;;;;55.33;46.33;27.10;35.90;;;;;;5060525;28;8766;-69
2021/11/27 12:15:11;;;;;;;;;60.00;49.67;27.90;33.60;;;;;;5076051;28;8810;-70
2021/11/27 12:18:15;;;;;;;;;48.00;41.00;27.60;33.50;;;;;;5067328;28;8796;-70
2021/11/27 12:20:59;;;;;;;;;52.33;44.33;26.70;34.80;;;;;;5060513;28;8824;-68
2021/11/27 12:23:28;;;;;;;;;49.67;42.00;27.30;33.90;;;;;;5070786;28;8868;-67
2021/11/27 12:26:11;;;;;;;;;58.00;48.67;27.50;32.90;;;;;;5062876;28;8875;-67
2021/11/27 12:28:41;;;;;;;;;56.00;46.67;27.80;32.50;;;;;;5053831;28;8783;-69
2021/11/27 12:31:16;;;;;;;;;59.33;49.00;25.80;34.10;;;;;;5063730;28;8777;-68
2021/11/27 12:34:00;;;;;;;;;56.00;47.00;23.00;38.60;;;;;;5062041;28;8809;-62
2021/11/27 12:36:26;;;;;;;;;62.00;51.00;21.00;42.00;;;;;;5059902;28;9422;-63
2021/11/27 12:38:55;;;;;;;;;58.33;48.67;19.30;46.70;;;;;;5074209;28;8797;-67
2021/11/27 12:41:26;;;;;;;;;59.25;50.00;18.40;49.00;;;;;;5067506;28;8801;-63
2021/11/27 12:44:21;;;;;;;;;62.50;51.25;17.60;51.60;;;;;;5066442;28;8765;-72
2021/11/27 12:46:49;;;;;;;;;56.25;47.50;17.30;52.90;;;;;;5062545;28;9569;-72
2021/11/27 12:49:33;;;;;;;;;67.75;56.25;17.30;52.80;;;;;;5068822;28;8791;-72